Gretna, Virginia
Current Conditions -  °F | °C
As of 2:15 AM on Sunday 26 Oct 2014 (Local Time) from K0V4 Reporting Station
Clear Clear  
Wind Chill: 63°   Ceiling: Unl
Heat Index: 63°   Visibility: 10mi
Dew Point: 53°   Wind: 14mph
Humidity: 70%   Direction: 270°W
Pressure: 29.81"   Gusts: 22mph
Location:  36.95°N, 79.36°W
Report Text: K0V4 260615Z AUTO 27012G19KT 10SM CLR 17/12 A2981 RMK AO1 T01720117
Loading
Personal Weather Stations






























Interactive Weather Map
Tropical Storm Tracking
New forecast layout! Learn more

10-Day Weather Forecast

Advertisements
Track Severe Weather on mobile